createdAt,value
2018-08-19T00:00:33.749Z,20.52
2018-08-19T00:01:33.734Z,20.53
2018-08-19T00:02:33.738Z,20.56
2018-08-19T00:03:33.713Z,20.58
2018-08-19T00:04:33.703Z,20.53
2018-08-19T00:05:33.690Z,20.50
2018-08-19T00:06:33.681Z,20.49
2018-08-19T00:07:33.673Z,20.49
2018-08-19T00:08:33.666Z,20.48
2018-08-19T00:09:33.643Z,20.37
2018-08-19T00:10:33.632Z,20.34
2018-08-19T00:11:33.623Z,20.27
2018-08-19T00:12:33.609Z,20.33
2018-08-19T00:13:33.600Z,20.19
2018-08-19T00:14:33.587Z,20.25
2018-08-19T00:15:33.573Z,20.25
2018-08-19T00:16:33.562Z,20.23
2018-08-19T00:17:33.550Z,20.23
2018-08-19T00:18:33.536Z,20.26
2018-08-19T00:19:33.531Z,20.17
2018-08-19T00:20:33.518Z,19.97
2018-08-19T00:21:33.503Z,19.89
2018-08-19T00:22:33.495Z,19.78
2018-08-19T00:23:33.479Z,19.77
2018-08-19T00:24:33.473Z,19.86
2018-08-19T00:25:33.455Z,19.86
2018-08-19T00:26:33.448Z,19.86
2018-08-19T00:27:33.434Z,19.97
2018-08-19T00:28:33.421Z,19.97
2018-08-19T00:29:33.413Z,19.93
2018-08-19T00:30:33.401Z,20.02
2018-08-19T00:31:33.388Z,20.09
2018-08-19T00:32:33.374Z,20.11
2018-08-19T00:33:33.361Z,20.15
2018-08-19T00:34:33.347Z,20.15
2018-08-19T00:35:33.337Z,20.17
2018-08-19T00:36:33.327Z,20.11
2018-08-19T00:37:33.314Z,20.14
2018-08-19T00:38:33.305Z,20.09
2018-08-19T00:39:33.290Z,20.14
2018-08-19T00:40:33.286Z,20.17
2018-08-19T00:41:33.266Z,20.04
2018-08-19T00:42:33.263Z,20.05
2018-08-19T00:43:33.246Z,20.17
2018-08-19T00:44:33.231Z,20.11
2018-08-19T00:45:33.218Z,20.11
2018-08-19T00:46:33.207Z,20.14
2018-08-19T00:47:33.199Z,20.05
2018-08-19T00:48:33.184Z,20.09
2018-08-19T00:49:33.177Z,20.04
2018-08-19T00:50:33.159Z,20.05
2018-08-19T00:51:33.148Z,19.97
2018-08-19T00:52:33.144Z,20.05
2018-08-19T00:53:33.141Z,19.99
2018-08-19T00:54:33.112Z,20.00
2018-08-19T00:55:33.101Z,20.09
2018-08-19T00:56:33.095Z,20.11
2018-08-19T00:57:33.083Z,20.09
2018-08-19T00:58:33.063Z,20.12
2018-08-19T00:59:33.051Z,20.08
2018-08-19T01:00:33.041Z,20.11
2018-08-19T01:01:33.030Z,20.12
2018-08-19T01:02:33.019Z,20.17
2018-08-19T01:03:33.011Z,20.19
2018-08-19T01:04:32.993Z,20.18
2018-08-19T01:05:32.986Z,20.11
2018-08-19T01:06:32.968Z,20.12
2018-08-19T01:07:32.956Z,20.09
2018-08-19T01:08:32.946Z,20.14
2018-08-19T01:09:32.933Z,20.05
2018-08-19T01:10:32.921Z,20.02
2018-08-19T01:11:32.912Z,20.08
2018-08-19T01:12:32.899Z,20.09
2018-08-19T01:13:32.885Z,19.94
2018-08-19T01:14:32.876Z,19.96
2018-08-19T01:15:32.873Z,19.89
2018-08-19T01:16:32.851Z,19.94
2018-08-19T01:17:32.841Z,19.92
2018-08-19T01:18:32.826Z,19.84
2018-08-19T01:19:32.814Z,19.94
2018-08-19T01:20:32.803Z,19.74
2018-08-19T01:21:32.803Z,19.79
2018-08-19T01:22:32.824Z,19.77
2018-08-19T01:23:32.780Z,19.71
2018-08-19T01:24:32.754Z,19.62
2018-08-19T01:25:32.741Z,19.64
2018-08-19T01:26:32.737Z,19.63
2018-08-19T01:27:32.721Z,19.64
2018-08-19T01:28:32.712Z,19.67
2018-08-19T01:29:32.698Z,19.67
2018-08-19T01:30:32.688Z,19.63
2018-08-19T01:31:32.671Z,19.64
2018-08-19T01:32:32.659Z,19.62
2018-08-19T01:33:32.647Z,19.63
2018-08-19T01:34:32.634Z,19.62
2018-08-19T01:35:32.623Z,19.64
2018-08-19T01:36:32.615Z,19.64
2018-08-19T01:37:32.601Z,19.68
2018-08-19T01:38:32.593Z,19.67
2018-08-19T01:39:32.575Z,19.67
2018-08-19T01:40:32.563Z,19.67
2018-08-19T01:41:32.552Z,19.64
2018-08-19T01:42:32.541Z,19.70
2018-08-19T01:43:32.526Z,19.49
2018-08-19T01:44:32.515Z,19.52
2018-08-19T01:45:32.505Z,19.37
2018-08-19T01:46:32.493Z,19.23
2018-08-19T01:47:32.480Z,19.01
2018-08-19T01:48:32.467Z,18.97
2018-08-19T01:49:32.458Z,18.88
2018-08-19T01:50:32.450Z,18.86
2018-08-19T01:51:32.432Z,18.85
2018-08-19T01:52:32.419Z,18.74
2018-08-19T01:53:32.407Z,18.70
2018-08-19T01:54:32.397Z,18.70
2018-08-19T01:55:32.381Z,18.64
2018-08-19T01:56:32.372Z,18.68
2018-08-19T01:57:32.359Z,18.74
2018-08-19T01:58:32.346Z,18.76
2018-08-19T01:59:32.379Z,18.81
2018-08-19T02:00:32.321Z,18.74
2018-08-19T02:01:32.311Z,18.63
2018-08-19T02:02:32.296Z,18.71
2018-08-19T02:03:32.285Z,18.61
2018-08-19T02:04:32.271Z,18.58
2018-08-19T02:05:32.259Z,18.61
2018-08-19T02:06:32.244Z,18.56
2018-08-19T02:07:32.232Z,18.66
2018-08-19T02:08:32.220Z,18.67
2018-08-19T02:09:32.207Z,18.66
2018-08-19T02:10:32.199Z,18.81
2018-08-19T02:11:32.184Z,18.81
2018-08-19T02:12:32.170Z,18.91
2018-08-19T02:13:32.158Z,18.82
2018-08-19T02:14:32.144Z,18.85
2018-08-19T02:15:32.131Z,18.94
2018-08-19T02:16:32.122Z,18.94
2018-08-19T02:17:32.107Z,18.96
2018-08-19T02:18:32.096Z,19.05
2018-08-19T02:19:32.088Z,18.97
2018-08-19T02:20:32.097Z,18.82
2018-08-19T02:21:32.061Z,18.89
2018-08-19T02:22:32.047Z,18.83
2018-08-19T02:23:32.031Z,18.91
2018-08-19T02:24:32.021Z,18.79
2018-08-19T02:25:32.049Z,18.86
2018-08-19T02:26:31.995Z,18.89
2018-08-19T02:27:31.983Z,18.86
2018-08-19T02:28:31.973Z,18.81
2018-08-19T02:29:31.959Z,18.81
2018-08-19T02:30:31.960Z,18.91
2018-08-19T02:31:31.933Z,18.86
2018-08-19T02:32:31.921Z,18.93
2018-08-19T02:33:31.908Z,18.78
2018-08-19T02:34:31.899Z,18.78
2018-08-19T02:35:31.884Z,18.63
2018-08-19T02:36:31.872Z,18.67
2018-08-19T02:37:31.857Z,18.63
2018-08-19T02:38:31.849Z,18.64
2018-08-19T02:39:31.832Z,18.61
2018-08-19T02:40:31.824Z,18.63
2018-08-19T02:41:31.811Z,18.57
2018-08-19T02:42:31.794Z,18.57
2018-08-19T02:43:31.785Z,18.56
2018-08-19T02:44:31.772Z,18.67
2018-08-19T02:45:31.757Z,18.61
2018-08-19T02:46:31.746Z,18.56
2018-08-19T02:47:31.752Z,18.54
2018-08-19T02:48:31.719Z,18.51
2018-08-19T02:49:31.705Z,18.49
2018-08-19T02:50:31.699Z,18.52
2018-08-19T02:51:31.682Z,18.45
2018-08-19T02:52:31.677Z,18.45
2018-08-19T02:53:31.669Z,18.38
2018-08-19T02:54:31.644Z,18.30
2018-08-19T02:55:31.646Z,18.28
2018-08-19T02:56:31.618Z,18.41
2018-08-19T02:57:31.602Z,18.48
2018-08-19T02:58:31.597Z,18.41
2018-08-19T02:59:31.583Z,18.39
2018-08-19T03:00:31.568Z,18.45
2018-08-19T03:01:31.554Z,18.46
2018-08-19T03:02:31.544Z,18.42
2018-08-19T03:03:31.530Z,18.43
2018-08-19T03:04:31.519Z,18.45
2018-08-19T03:05:31.509Z,18.49
2018-08-19T03:06:31.490Z,18.41
2018-08-19T03:07:31.477Z,18.46
2018-08-19T03:08:31.468Z,18.43
2018-08-19T03:09:31.452Z,18.42
2018-08-19T03:10:31.438Z,18.52
2018-08-19T03:11:31.433Z,18.52
2018-08-19T03:12:31.414Z,18.56
2018-08-19T03:13:31.401Z,18.57
2018-08-19T03:14:31.388Z,18.57
2018-08-19T03:15:31.377Z,18.71
2018-08-19T03:16:31.363Z,18.68
2018-08-19T03:17:31.352Z,18.70
2018-08-19T03:18:31.342Z,18.71
2018-08-19T03:19:31.333Z,18.78
2018-08-19T03:20:31.314Z,18.81
2018-08-19T03:21:31.299Z,18.71
2018-08-19T03:22:31.286Z,18.78
2018-08-19T03:23:31.277Z,18.83
2018-08-19T03:24:31.261Z,18.78
2018-08-19T03:25:31.247Z,18.81
2018-08-19T03:26:31.238Z,18.70
2018-08-19T03:27:31.225Z,18.58
2018-08-19T03:28:31.211Z,18.54
2018-08-19T03:29:31.199Z,18.48
2018-08-19T03:30:31.196Z,18.49
2018-08-19T03:31:31.179Z,18.42
2018-08-19T03:32:31.161Z,18.48
2018-08-19T03:33:31.148Z,18.48
2018-08-19T03:34:31.135Z,18.58
2018-08-19T03:35:31.126Z,18.52
2018-08-19T03:36:31.111Z,18.49
2018-08-19T03:37:31.101Z,18.54
2018-08-19T03:38:31.085Z,18.42
2018-08-19T03:39:31.075Z,18.46
2018-08-19T03:40:31.062Z,18.41
2018-08-19T03:41:31.045Z,18.41
2018-08-19T03:42:31.034Z,18.36
2018-08-19T03:43:31.020Z,18.18
2018-08-19T03:44:31.008Z,18.24
2018-08-19T03:45:30.992Z,18.27
2018-08-19T03:46:30.986Z,18.24
2018-08-19T03:47:30.971Z,18.20
2018-08-19T03:48:30.955Z,18.21
2018-08-19T03:49:30.943Z,18.17
2018-08-19T03:50:30.934Z,18.21
2018-08-19T03:51:30.919Z,18.24
2018-08-19T03:52:30.906Z,18.31
2018-08-19T03:53:30.891Z,18.26
2018-08-19T03:54:30.878Z,18.23
2018-08-19T03:55:30.874Z,18.20
2018-08-19T03:56:30.852Z,18.13
2018-08-19T03:57:30.843Z,18.13
2018-08-19T03:58:30.828Z,18.11
2018-08-19T03:59:30.816Z,18.06
2018-08-19T04:00:30.804Z,18.15
2018-08-19T04:01:30.789Z,18.13
2018-08-19T04:02:30.775Z,17.87
2018-08-19T04:03:30.761Z,17.66
2018-08-19T04:04:30.761Z,17.56
2018-08-19T04:05:30.736Z,17.45
2018-08-19T04:06:30.723Z,17.35
2018-08-19T04:07:30.723Z,17.49
2018-08-19T04:08:30.698Z,17.35
2018-08-19T04:09:30.685Z,17.25
2018-08-19T04:10:30.671Z,17.22
2018-08-19T04:11:30.659Z,17.25
2018-08-19T04:12:30.646Z,17.28
2018-08-19T04:13:30.632Z,17.37
2018-08-19T04:14:30.619Z,17.37
2018-08-19T04:15:30.605Z,17.39
2018-08-19T04:16:30.595Z,17.34
2018-08-19T04:17:30.580Z,17.38
2018-08-19T04:18:30.567Z,17.39
2018-08-19T04:19:30.559Z,17.34
2018-08-19T04:20:30.543Z,17.27
2018-08-19T04:21:30.531Z,17.35
2018-08-19T04:22:30.521Z,17.39
2018-08-19T04:23:30.601Z,17.49
2018-08-19T04:24:30.493Z,17.57
2018-08-19T04:25:30.473Z,17.53
2018-08-19T04:26:30.460Z,17.57
2018-08-19T04:27:30.451Z,17.59
2018-08-19T04:28:30.439Z,17.71
2018-08-19T04:29:30.428Z,17.69
2018-08-19T04:30:30.412Z,17.75
2018-08-19T04:31:30.398Z,17.86
2018-08-19T04:32:30.384Z,17.88
2018-08-19T04:33:30.368Z,17.90
2018-08-19T04:34:30.355Z,17.96
2018-08-19T04:35:30.342Z,17.91
2018-08-19T04:36:30.335Z,17.88
2018-08-19T04:37:30.332Z,17.91
2018-08-19T04:38:30.314Z,17.79
2018-08-19T04:39:30.335Z,17.68
2018-08-19T04:40:30.275Z,17.62
2018-08-19T04:41:30.263Z,17.69
2018-08-19T04:42:30.254Z,17.72
2018-08-19T04:43:30.242Z,17.69
2018-08-19T04:44:30.224Z,17.72
2018-08-19T04:45:30.211Z,17.72
2018-08-19T04:46:30.201Z,17.72
2018-08-19T04:47:30.186Z,17.84
2018-08-19T04:48:30.173Z,17.88
2018-08-19T04:49:30.159Z,17.93
2018-08-19T04:50:30.146Z,17.91
2018-08-19T04:51:30.137Z,17.87
2018-08-19T04:52:30.119Z,17.87
2018-08-19T04:53:30.105Z,17.91
2018-08-19T04:54:30.093Z,17.87
2018-08-19T04:55:30.079Z,17.91
2018-08-19T04:56:30.077Z,17.88
2018-08-19T04:57:30.059Z,18.02
2018-08-19T04:58:30.051Z,17.86
2018-08-19T04:59:30.028Z,17.91
2018-08-19T05:00:30.027Z,17.87
2018-08-19T05:01:30.007Z,17.87
2018-08-19T05:02:30.040Z,17.81
2018-08-19T05:03:29.973Z,17.86
2018-08-19T05:04:29.966Z,17.81
2018-08-19T05:05:29.948Z,17.84
2018-08-19T05:06:29.947Z,17.83
2018-08-19T05:07:29.922Z,17.71
2018-08-19T05:08:30.036Z,17.69
2018-08-19T05:09:29.896Z,17.73
2018-08-19T05:10:29.889Z,17.65
2018-08-19T05:11:29.879Z,17.63
2018-08-19T05:12:29.857Z,17.63
2018-08-19T05:13:29.857Z,17.68
2018-08-19T05:14:29.836Z,17.72
2018-08-19T05:15:29.826Z,17.79
2018-08-19T05:16:29.809Z,17.78
2018-08-19T05:17:29.791Z,17.81
2018-08-19T05:18:29.777Z,17.87
2018-08-19T05:19:29.766Z,17.91
2018-08-19T05:20:29.761Z,18.05
2018-08-19T05:21:29.739Z,18.06
2018-08-19T05:22:29.779Z,18.15
2018-08-19T05:23:29.713Z,18.15
2018-08-19T05:24:29.700Z,18.11
2018-08-19T05:25:29.692Z,18.26
2018-08-19T05:26:29.673Z,18.21
2018-08-19T05:27:29.660Z,18.26
2018-08-19T05:28:29.679Z,18.23
2018-08-19T05:29:29.635Z,18.23
2018-08-19T05:30:29.621Z,18.24
2018-08-19T05:31:29.615Z,18.17
2018-08-19T05:32:29.602Z,18.15
2018-08-19T05:33:29.584Z,18.12
2018-08-19T05:34:29.570Z,18.21
2018-08-19T05:35:29.557Z,18.26
2018-08-19T05:36:29.545Z,18.33
2018-08-19T05:37:29.531Z,18.27
2018-08-19T05:38:29.519Z,18.43
2018-08-19T05:39:29.509Z,18.43
2018-08-19T05:40:29.492Z,18.48
2018-08-19T05:41:29.481Z,18.45
2018-08-19T05:42:29.471Z,18.43
2018-08-19T05:43:29.456Z,18.43
2018-08-19T05:44:29.445Z,18.34
2018-08-19T05:45:29.432Z,18.41
2018-08-19T05:46:29.416Z,18.42
2018-08-19T05:47:29.412Z,18.45
2018-08-19T05:48:29.393Z,18.51
2018-08-19T05:49:29.378Z,18.58
2018-08-19T05:50:29.368Z,18.63
2018-08-19T05:51:29.359Z,18.70
2018-08-19T05:52:29.340Z,18.76
2018-08-19T05:53:29.331Z,18.83
2018-08-19T05:54:29.315Z,18.88
2018-08-19T05:55:29.331Z,18.71
2018-08-19T05:56:29.292Z,18.88
2018-08-19T05:57:29.279Z,18.89
2018-08-19T05:58:29.265Z,18.81
2018-08-19T05:59:29.254Z,18.91
2018-08-19T06:00:29.241Z,18.91
2018-08-19T06:01:29.228Z,18.96
2018-08-19T06:02:29.217Z,18.94
2018-08-19T06:03:29.263Z,18.91
2018-08-19T06:04:29.193Z,19.01
2018-08-19T06:05:29.177Z,19.05
2018-08-19T06:06:29.170Z,19.07
2018-08-19T06:07:29.202Z,19.08
2018-08-19T06:08:29.140Z,19.30
2018-08-19T06:09:29.139Z,19.19
2018-08-19T06:10:29.116Z,19.13
2018-08-19T06:11:29.118Z,19.35
2018-08-19T06:12:29.107Z,19.37
2018-08-19T06:13:29.091Z,19.38
2018-08-19T06:14:29.066Z,19.47
2018-08-19T06:15:29.057Z,19.52
2018-08-19T06:16:29.044Z,19.60
2018-08-19T06:17:29.034Z,19.68
2018-08-19T06:18:29.022Z,19.75
2018-08-19T06:19:29.007Z,19.70
2018-08-19T06:20:28.994Z,19.64
2018-08-19T06:21:28.983Z,19.70
2018-08-19T06:22:28.971Z,19.78
2018-08-19T06:23:28.993Z,19.70
2018-08-19T06:24:28.984Z,19.68
2018-08-19T06:25:28.935Z,19.56
2018-08-19T06:26:28.927Z,19.54
2018-08-19T06:27:28.917Z,19.53
2018-08-19T06:28:28.905Z,19.63
2018-08-19T06:29:28.887Z,19.68
2018-08-19T06:30:28.886Z,19.75
2018-08-19T06:31:28.864Z,19.77
2018-08-19T06:32:28.856Z,19.78
2018-08-19T06:33:28.841Z,19.81
2018-08-19T06:34:28.842Z,19.96
2018-08-19T06:35:28.817Z,19.84
2018-08-19T06:36:28.862Z,19.81
2018-08-19T06:37:28.793Z,19.81
2018-08-19T06:38:28.784Z,19.90
2018-08-19T06:39:28.775Z,19.97
2018-08-19T06:40:28.759Z,19.94
2018-08-19T06:41:28.753Z,19.97
2018-08-19T06:42:28.741Z,20.05
2018-08-19T06:43:28.725Z,20.14
2018-08-19T06:44:28.711Z,20.14
2018-08-19T06:45:28.704Z,20.18
2018-08-19T06:46:28.697Z,20.26
2018-08-19T06:47:28.679Z,20.30
2018-08-19T06:48:28.681Z,20.30
2018-08-19T06:49:28.660Z,20.23
2018-08-19T06:50:28.643Z,20.25
2018-08-19T06:51:28.640Z,20.23
2018-08-19T06:52:28.624Z,20.26
2018-08-19T06:53:28.613Z,20.26
2018-08-19T06:54:28.601Z,20.33
2018-08-19T06:55:28.588Z,20.49
2018-08-19T06:56:28.576Z,20.60
2018-08-19T06:57:28.565Z,20.49
2018-08-19T06:58:28.558Z,20.58
2018-08-19T06:59:28.553Z,20.56
2018-08-19T07:00:28.535Z,20.50
2018-08-19T07:01:28.523Z,20.39
2018-08-19T07:02:28.512Z,20.37
2018-08-19T07:03:28.570Z,20.32
2018-08-19T07:04:28.491Z,20.19
2018-08-19T07:05:28.476Z,20.39
2018-08-19T07:06:28.468Z,20.26
2018-08-19T07:07:28.452Z,20.42
2018-08-19T07:08:28.443Z,20.49
2018-08-19T07:09:28.433Z,20.65
2018-08-19T07:10:28.426Z,20.74
2018-08-19T07:11:28.414Z,20.65
2018-08-19T07:12:28.406Z,20.89
2018-08-19T07:13:28.394Z,21.04
2018-08-19T07:14:28.383Z,21.08
2018-08-19T07:15:28.418Z,21.22
2018-08-19T07:16:28.366Z,21.23
2018-08-19T07:17:28.358Z,21.47
2018-08-19T07:18:28.351Z,21.55
2018-08-19T07:19:28.343Z,21.62
2018-08-19T07:20:28.332Z,22.00
2018-08-19T07:21:28.333Z,22.48
2018-08-19T07:22:28.320Z,22.76
2018-08-19T07:23:28.311Z,22.92
2018-08-19T07:24:28.310Z,22.77
2018-08-19T07:25:28.309Z,22.81
2018-08-19T07:26:28.296Z,22.67
2018-08-19T07:27:28.300Z,23.04
2018-08-19T07:28:28.284Z,23.10
2018-08-19T07:29:28.279Z,23.41
2018-08-19T07:30:28.282Z,24.00
2018-08-19T07:31:28.267Z,24.28
2018-08-19T07:32:28.264Z,24.91
2018-08-19T07:33:28.260Z,25.23
2018-08-19T07:34:28.255Z,25.12
2018-08-19T07:35:28.250Z,25.64
2018-08-19T07:36:28.261Z,26.10
2018-08-19T07:37:28.247Z,26.01
2018-08-19T07:38:28.242Z,26.20
2018-08-19T07:39:28.238Z,26.53
2018-08-19T07:40:28.237Z,26.56
2018-08-19T07:41:28.234Z,26.98
2018-08-19T07:42:28.233Z,26.49
2018-08-19T07:43:28.233Z,26.58
2018-08-19T07:44:28.245Z,26.93
2018-08-19T07:45:28.229Z,27.03
2018-08-19T07:46:28.226Z,26.60
2018-08-19T07:47:28.224Z,26.89
2018-08-19T07:48:28.228Z,27.17
2018-08-19T07:49:28.224Z,26.38
2018-08-19T07:50:28.235Z,26.80
2018-08-19T07:51:28.226Z,26.80
2018-08-19T07:52:28.224Z,27.12
2018-08-19T07:53:28.222Z,27.17
2018-08-19T07:54:28.222Z,26.45
2018-08-19T07:55:28.229Z,27.10
2018-08-19T07:56:28.223Z,27.19
2018-08-19T07:57:28.221Z,27.47
2018-08-19T07:58:28.231Z,27.75
2018-08-19T07:59:28.234Z,28.07
2018-08-19T08:00:28.224Z,28.47
2018-08-19T08:01:28.349Z,28.64
2018-08-19T08:02:28.234Z,29.03
2018-08-19T08:03:28.227Z,28.16
2018-08-19T08:04:28.229Z,27.50
2018-08-19T08:05:28.233Z,27.75
2018-08-19T08:06:28.239Z,28.42
2018-08-19T08:07:28.232Z,28.27
2018-08-19T08:08:28.244Z,27.10
2018-08-19T08:09:28.235Z,27.47
2018-08-19T08:10:28.237Z,27.23
2018-08-19T08:11:28.242Z,27.20
2018-08-19T08:12:28.240Z,27.83
2018-08-19T08:13:28.244Z,28.10
2018-08-19T08:14:28.243Z,27.93
2018-08-19T08:15:28.246Z,27.35
2018-08-19T08:16:28.251Z,28.05
2018-08-19T08:17:28.255Z,27.31
2018-08-19T08:18:28.250Z,27.87
2018-08-19T08:19:28.263Z,28.22
2018-08-19T08:20:28.257Z,28.37
2018-08-19T08:21:28.383Z,28.49
2018-08-19T08:22:28.265Z,28.00
2018-08-19T08:23:28.260Z,28.27
2018-08-19T08:24:28.262Z,28.17
2018-08-19T08:25:28.267Z,28.09
2018-08-19T08:26:28.275Z,27.25
2018-08-19T08:27:28.268Z,26.95
2018-08-19T08:28:28.273Z,26.95
2018-08-19T08:29:28.272Z,26.31
2018-08-19T08:30:28.276Z,26.36
2018-08-19T08:31:28.275Z,25.90
2018-08-19T08:32:28.279Z,25.53
2018-08-19T08:33:28.277Z,25.00
2018-08-19T08:34:28.360Z,25.18
2018-08-19T08:35:28.275Z,24.66
2018-08-19T08:36:28.275Z,24.43
2018-08-19T08:37:28.274Z,24.47
2018-08-19T08:38:28.271Z,24.08
2018-08-19T08:39:28.271Z,23.36
2018-08-19T08:40:28.272Z,23.41
2018-08-19T08:41:28.262Z,23.49
2018-08-19T08:42:28.264Z,23.81
2018-08-19T08:43:28.264Z,23.69
2018-08-19T08:44:28.277Z,23.45
2018-08-19T08:45:28.250Z,23.29
2018-08-19T08:46:28.252Z,22.85
2018-08-19T08:47:28.312Z,23.06
2018-08-19T08:48:28.237Z,23.61
2018-08-19T08:49:28.234Z,23.59
2018-08-19T08:50:28.229Z,24.84
2018-08-19T08:51:28.255Z,25.46
2018-08-19T08:52:28.224Z,25.59
2018-08-19T08:53:28.221Z,24.94
2018-08-19T08:54:28.210Z,24.44
2018-08-19T08:55:28.218Z,24.13
2018-08-19T08:56:28.262Z,23.97
2018-08-19T08:57:28.196Z,23.89
2018-08-19T08:58:28.190Z,23.96
2018-08-19T08:59:28.182Z,23.92
2018-08-19T09:00:28.182Z,23.63
2018-08-19T09:01:28.172Z,23.41
2018-08-19T09:02:28.169Z,23.41
2018-08-19T09:03:28.160Z,23.45
2018-08-19T09:04:28.151Z,23.33
2018-08-19T09:05:28.142Z,23.79
2018-08-19T09:06:28.140Z,23.91
2018-08-19T09:07:28.136Z,23.81
2018-08-19T09:08:28.126Z,23.79
2018-08-19T09:09:28.121Z,23.97
2018-08-19T09:10:28.111Z,23.94
2018-08-19T09:11:28.109Z,24.43
2018-08-19T09:12:28.100Z,24.16
2018-08-19T09:13:28.091Z,23.97
2018-08-19T09:14:28.092Z,24.03
2018-08-19T09:15:28.075Z,23.91
2018-08-19T09:16:28.072Z,23.92
2018-08-19T09:17:28.061Z,24.00
2018-08-19T09:18:28.054Z,23.70
2018-08-19T09:19:28.052Z,23.22
2018-08-19T09:20:28.043Z,24.62
2018-08-19T09:21:28.067Z,25.43
2018-08-19T09:22:28.027Z,24.91
2018-08-19T09:23:28.099Z,25.49
2018-08-19T09:24:28.010Z,26.70
2018-08-19T09:25:28.009Z,26.20
2018-08-19T09:26:28.006Z,25.45
2018-08-19T09:27:27.996Z,26.16
2018-08-19T09:28:27.990Z,26.00
2018-08-19T09:29:27.974Z,25.59
2018-08-19T09:30:27.967Z,25.49
2018-08-19T09:31:27.969Z,25.26
2018-08-19T09:32:27.956Z,25.09
2018-08-19T09:33:27.948Z,24.91
2018-08-19T09:34:27.945Z,26.01
2018-08-19T09:35:27.938Z,25.22
2018-08-19T09:36:27.931Z,25.27
2018-08-19T09:37:27.922Z,25.98
2018-08-19T09:38:27.913Z,26.23
2018-08-19T09:39:27.909Z,25.93
2018-08-19T09:40:27.903Z,25.43
2018-08-19T09:41:27.895Z,25.53
2018-08-19T09:42:27.888Z,26.31
2018-08-19T09:43:27.882Z,26.83
2018-08-19T09:44:27.875Z,27.01
2018-08-19T09:45:27.869Z,27.17
2018-08-19T09:46:27.864Z,27.44
2018-08-19T09:47:27.928Z,27.66
2018-08-19T09:48:27.853Z,26.68
2018-08-19T09:49:27.844Z,26.41
2018-08-19T09:50:27.836Z,26.45
2018-08-19T09:51:27.836Z,25.98
2018-08-19T09:52:27.826Z,26.90
2018-08-19T09:53:27.822Z,27.10
2018-08-19T09:54:27.814Z,27.42
2018-08-19T09:55:27.810Z,27.19
2018-08-19T09:56:27.805Z,27.04
2018-08-19T09:57:27.844Z,27.35
2018-08-19T09:58:27.793Z,27.69
2018-08-19T09:59:27.785Z,28.59
2018-08-19T10:00:27.779Z,28.31
2018-08-19T10:01:27.816Z,28.22
2018-08-19T10:02:27.764Z,27.97
2018-08-19T10:03:27.757Z,28.38
2018-08-19T10:04:27.751Z,27.69
2018-08-19T10:05:27.745Z,27.40
2018-08-19T10:06:27.738Z,26.90
2018-08-19T10:07:27.750Z,26.07
2018-08-19T10:08:27.726Z,25.74
2018-08-19T10:09:27.719Z,25.78
2018-08-19T10:10:27.724Z,26.67
2018-08-19T10:11:27.707Z,27.49
2018-08-19T10:12:27.699Z,28.06
2018-08-19T10:13:27.694Z,28.20
2018-08-19T10:14:27.688Z,28.09
2018-08-19T10:15:27.679Z,28.65
2018-08-19T10:16:27.677Z,28.20
2018-08-19T10:17:27.675Z,28.15
2018-08-19T10:18:27.661Z,27.72
2018-08-19T10:19:27.655Z,28.12
2018-08-19T10:20:27.648Z,28.01
2018-08-19T10:21:27.644Z,28.57
2018-08-19T10:22:27.632Z,28.61
2018-08-19T10:23:27.624Z,28.59
2018-08-19T10:24:27.620Z,28.35
2018-08-19T10:25:27.622Z,28.42
2018-08-19T10:26:27.615Z,28.30
2018-08-19T10:27:27.600Z,28.91
2018-08-19T10:28:27.592Z,29.27
2018-08-19T10:29:27.589Z,28.91
2018-08-19T10:30:27.591Z,28.56
2018-08-19T10:31:27.596Z,28.37
2018-08-19T10:32:27.581Z,28.43
2018-08-19T10:33:27.569Z,28.13
2018-08-19T10:34:27.557Z,28.17
2018-08-19T10:35:27.552Z,28.13
2018-08-19T10:36:27.547Z,28.64
2018-08-19T10:37:27.546Z,28.86
2018-08-19T10:38:27.534Z,29.10
2018-08-19T10:39:27.542Z,29.15
2018-08-19T10:40:27.521Z,29.28
2018-08-19T10:41:27.514Z,29.29
2018-08-19T10:42:27.508Z,29.17
2018-08-19T10:43:27.503Z,29.10
2018-08-19T10:44:27.500Z,28.87
2018-08-19T10:45:27.492Z,28.61
2018-08-19T10:46:27.490Z,28.10
2018-08-19T10:47:27.480Z,27.95
2018-08-19T10:48:27.474Z,28.03
2018-08-19T10:49:27.468Z,27.93
2018-08-19T10:50:27.466Z,28.10
2018-08-19T10:51:27.460Z,28.25
2018-08-19T10:52:27.456Z,28.49
2018-08-19T10:53:27.481Z,27.97
2018-08-19T10:54:27.450Z,27.68
2018-08-19T10:55:27.442Z,27.63
2018-08-19T10:56:27.423Z,27.64
2018-08-19T10:57:27.415Z,27.69
2018-08-19T10:58:27.455Z,27.60
2018-08-19T10:59:27.405Z,27.72
2018-08-19T11:00:27.398Z,27.70
2018-08-19T11:01:27.392Z,28.10
2018-08-19T11:02:27.385Z,27.66
2018-08-19T11:03:27.379Z,27.60
2018-08-19T11:04:27.373Z,27.35
2018-08-19T11:05:27.367Z,27.68
2018-08-19T11:06:27.391Z,27.61
2018-08-19T11:07:27.358Z,27.41
2018-08-19T11:08:27.353Z,27.40
2018-08-19T11:09:27.342Z,27.78
2018-08-19T11:10:27.334Z,27.95
2018-08-19T11:11:27.339Z,27.97
2018-08-19T11:12:27.324Z,28.12
2018-08-19T11:13:27.401Z,28.22
2018-08-19T11:14:27.319Z,28.37
2018-08-19T11:15:27.306Z,28.34
2018-08-19T11:16:27.298Z,28.17
2018-08-19T11:17:27.290Z,28.24
2018-08-19T11:18:27.284Z,28.52
2018-08-19T11:19:27.278Z,28.44
2018-08-19T11:20:27.278Z,28.44
2018-08-19T11:21:27.263Z,28.30
2018-08-19T11:22:27.266Z,28.22
2018-08-19T11:23:27.255Z,28.38
2018-08-19T11:24:27.245Z,28.66
2018-08-19T11:25:27.261Z,28.50
2018-08-19T11:26:27.262Z,28.43
2018-08-19T11:27:27.285Z,28.27
2018-08-19T11:28:27.223Z,28.05
2018-08-19T11:29:27.215Z,28.05
2018-08-19T11:30:27.209Z,27.97
2018-08-19T11:31:27.346Z,27.63
2018-08-19T11:32:27.197Z,27.76
2018-08-19T11:33:27.188Z,27.93
2018-08-19T11:34:27.190Z,27.98
2018-08-19T11:35:27.179Z,28.30
2018-08-19T11:36:27.175Z,28.06
2018-08-19T11:37:27.165Z,28.10
2018-08-19T11:38:27.161Z,28.25
2018-08-19T11:39:27.152Z,27.76
2018-08-19T11:40:27.146Z,27.78
2018-08-19T11:41:27.144Z,27.93
2018-08-19T11:42:27.133Z,28.22
2018-08-19T11:43:27.163Z,28.34
2018-08-19T11:44:27.125Z,28.52
2018-08-19T11:45:27.115Z,28.80
2018-08-19T11:46:27.108Z,28.84
2018-08-19T11:47:27.101Z,29.02
2018-08-19T11:48:27.105Z,28.50
2018-08-19T11:49:27.096Z,28.50
2018-08-19T11:50:27.084Z,28.24
2018-08-19T11:51:27.077Z,28.17
2018-08-19T11:52:27.071Z,28.10
2018-08-19T11:53:27.103Z,28.15
2018-08-19T11:54:27.061Z,28.34
2018-08-19T11:55:27.132Z,28.17
2018-08-19T11:56:27.049Z,28.42
2018-08-19T11:57:27.040Z,28.28
2018-08-19T11:58:27.030Z,28.38
2018-08-19T11:59:27.026Z,27.70
2018-08-19T12:00:27.019Z,27.72
2018-08-19T12:01:27.014Z,27.49
2018-08-19T12:02:27.009Z,27.83
2018-08-19T12:03:26.999Z,28.16
2018-08-19T12:04:27.005Z,28.38
2018-08-19T12:05:26.993Z,28.77
2018-08-19T12:06:26.980Z,29.19
2018-08-19T12:07:26.975Z,29.07
2018-08-19T12:08:26.978Z,29.22
2018-08-19T12:09:26.963Z,29.17
2018-08-19T12:10:26.957Z,28.50
2018-08-19T12:11:26.955Z,28.68
2018-08-19T12:12:26.945Z,28.83
2018-08-19T12:13:26.942Z,28.93
2018-08-19T12:14:26.935Z,28.66
2018-08-19T12:15:26.933Z,28.59
2018-08-19T12:16:26.924Z,28.40
2018-08-19T12:17:26.916Z,28.34
2018-08-19T12:18:26.916Z,28.28
2018-08-19T12:19:26.908Z,28.49
2018-08-19T12:20:26.902Z,28.79
2018-08-19T12:21:26.892Z,28.69
2018-08-19T12:22:26.885Z,29.03
2018-08-19T12:23:26.878Z,29.24
2018-08-19T12:24:26.877Z,29.36
2018-08-19T12:25:26.872Z,29.25
2018-08-19T12:26:26.860Z,29.49
2018-08-19T12:27:26.994Z,29.40
2018-08-19T12:28:26.850Z,29.36
2018-08-19T12:29:26.840Z,29.25
2018-08-19T12:30:26.837Z,29.15
2018-08-19T12:31:26.830Z,29.18
2018-08-19T12:32:26.829Z,29.34
2018-08-19T12:33:26.830Z,29.03
2018-08-19T12:34:26.821Z,28.30
2018-08-19T12:35:26.808Z,28.65
2018-08-19T12:36:26.812Z,28.56
2018-08-19T12:37:26.800Z,28.83
2018-08-19T12:38:26.789Z,28.94
2018-08-19T12:39:26.793Z,29.21
2018-08-19T12:40:26.776Z,29.07
2018-08-19T12:41:26.780Z,29.39
2018-08-19T12:42:26.770Z,29.47
2018-08-19T12:43:26.760Z,29.54
2018-08-19T12:44:26.757Z,29.58
2018-08-19T12:45:26.750Z,29.77
2018-08-19T12:46:26.743Z,29.71
2018-08-19T12:47:26.741Z,29.63
2018-08-19T12:48:26.743Z,29.58
2018-08-19T12:49:26.729Z,29.13
2018-08-19T12:50:26.722Z,29.18
2018-08-19T12:51:26.787Z,28.94
2018-08-19T12:52:26.710Z,29.06